Tiempo atmosférico en la estación meteorológica de Villarrobledo, Albacete (718 m.)



Fecha
DESCASC
Temp. máxima en grados centígrados (hora)
DESCASC
Temp. mínima en grados centígrados (hora)
DESCASC
Temp. media en grados centígrados
DESCASC
Racha de viento máxima en m/sg (hora)
DESCASC
Velocidad máxima media en intervalos de 10 minutos(hora)
DESCASC
Precipitaciones diarias en mm
DESCASC
Precipitaciones de 00:00 a 06:00 en mm
DESCASC
Precipitaciones de 06:00 a 12:00 en mm
DESCASC
Precipitaciones de 12:00 a 18:00 en mm
DESCASC
Precipitaciones de 18:00 a 24:00 en mm
DESCASC
06-07-2020 41.1 (17:00) 18.2 (07:10) 29.6 8.06 (17:40) 4.44 (17:40) 0 0 0 0 0
05-07-2020 40.1 (17:00) 17.7 (07:10) 28.9 10 (01:40) 5.83 (00:10) 0 0 0 0 0
04-07-2020 40 (17:30) 17.5 (07:20) 28.8 9.44 (23:59) 5.28 (23:59) 0 0 0 0 0
03-07-2020 36.1 (18:40) 16.8 (07:10) 26.4 8.89 (19:30) 5 (15:20) 0 0 0 0 0
02-07-2020 34.1 (15:40) 18.2 (00:00) 26.1 13.06 (16:20) 8.06 (17:50) 0 0 0 0 0
01-07-2020 36.6 (17:20) 20.6 (00:00) 28.6 12.22 (18:00) 7.22 (17:30) 0 0 0 0 0
30-06-2020 41 (16:40) 18.7 (00:00) 29.9 10.56 (20:10) 5.83 (20:20) 0 0 0 0 0
29-06-2020 40.8 (16:00) 17.3 (00:00) 29 8.33 (16:50) 4.17 (16:50) 0 0 0 0 0
28-06-2020 36.9 (17:00) 16.4 (00:00) 26.7 9.44 (16:50) 4.17 (14:20) 0 0 0 0 0
27-06-2020 34.1 (17:40) 16.4 (00:00) 25.2 8.61 (17:10) 4.72 (18:30) 0 0 0 0 0
26-06-2020 37.2 (16:30) 17.7 (00:00) 27.5 10.28 (19:50) 6.39 (19:50) 0 0 0 0 0
25-06-2020 35.5 (17:00) 16.9 (00:00) 26.2 14.17 (18:40) 8.06 (18:40) 0 0 0 0 0
24-06-2020 33.4 (16:50) 18.4 (00:00) 25.9 10.28 (19:30) 6.11 (19:30) 0.4 0 0 0.4 0
23-06-2020 37.7 (16:50) 16.4 (00:00) 27.1 10 (02:30) 6.11 (01:50) 0 0 0 0 0
22-06-2020 38.2 (17:10) 17.4 (00:00) 27.8 9.17 (15:00) 5.56 (14:50) 0 0 0 0 0
21-06-2020 36.9 (19:10) 14.9 (00:00) 25.9 7.5 (14:00) 4.72 (09:20) 0 0 0 0 0
20-06-2020 34.2 (17:40) 13.7 (00:00) 24 10 (17:00) 5.56 (19:10) 0 0 0 0 0
19-06-2020 33.1 (16:30) 14.1 (00:00) 23.6 11.11 (18:00) 5.28 (18:10) 0 0 0 0 0
18-06-2020 31.9 (16:50) 11.1 (00:00) 21.5 9.44 (17:30) 5 (18:00) 0 0 0 0 0
17-06-2020 28 (17:50) 12.1 (00:00) 20.1 12.78 (14:40) 7.5 (15:10) 0 0 0 0 0
16-06-2020 30 (15:30) 13.9 (00:00) 21.9 11.11 (15:50) 6.67 (20:20) 0 0 0 0 0
15-06-2020 29.1 (18:10) 12.1 (00:00) 20.6 11.67 (17:00) 6.94 (17:40) 0 0 0 0 0
14-06-2020 27.9 (16:50) 11.7 (00:00) 19.8 10.56 (15:10) 6.11 (17:30) 0 0 0 0 0
13-06-2020 25.6 (18:00) 10.4 (00:00) 18 10.28 (00:40) 6.67 (00:40) 0 0 0 0 0
12-06-2020 21.5 (17:30) 11.9 (00:00) 16.7 16.11 (01:50) 9.72 (01:50) 0 0 0 0 0
11-06-2020 26.5 (16:30) 13.5 (00:00) 20 16.67 (17:10) 10.83 (19:30) 0 0 0 0 0
10-06-2020 30.2 (17:40) 9 (00:00) 19.6 9.17 (15:30) 5 (14:40) 0 0 0 0 0

Gráficas

Temp. máximas Temp. mínimas Temp. medias Precipitaciones Rachas de viento máximas Velocidades máximas media en intervalos de 10 minutos

Datos horarios

Fecha y hora oficial Temperatura (ºC) Velocidad del viento (km/h) Dirección del viento Racha (km/h) Dirección de racha Precipitación (mm) Presión (hPa) Tendencia (hPa) Humedad (%)
2020-07-09 23:00:00 17.9 9 Norte 18 Norte 0 -- -- 70
2020-07-09 22:00:00 18.8 5 Nordeste 25 Nordeste 0 -- -- 70
2020-07-09 21:00:00 21 19 Nordeste 34 Nordeste 0 -- -- 64
2020-07-09 20:00:00 21.8 19 Nordeste 30 Nordeste 0 -- -- 61
2020-07-09 19:00:00 18 21 Nordeste 31 Nordeste 4.6 -- -- 76
2020-07-09 18:00:00 18.2 14 Noroeste 55 Oeste 4 -- -- 77
2020-07-09 17:00:00 29.3 14 Nordeste 31 Este 0 -- -- 32
2020-07-09 16:00:00 31.8 14 Este 32 Este 0 -- -- 29
2020-07-09 15:00:00 32.2 15 Nordeste 26 Este 0 -- -- 28
2020-07-09 14:00:00 33.1 5 Nordeste 17 Este 0 -- -- 29
2020-07-09 13:00:00 28.6 11 Este 22 Este 0 -- -- 38
2020-07-09 12:00:00 30.7 4 Nordeste 11 Nordeste 0 -- -- 34
2020-07-09 11:00:00 28.7 3 Sudoeste 13 Nordeste 0 -- -- 32
2020-07-09 10:00:00 25.6 5 Este 13 Este 0 -- -- 52
2020-07-09 09:00:00 21.7 8 Este 14 Este 0 -- -- 69
2020-07-09 08:00:00 19.3 6 Este 15 Este 0 -- -- 77
2020-07-09 07:00:00 18.1 5 Este 16 Este 0 -- -- 80
2020-07-09 06:00:00 19 8 Nordeste 17 Este 0 -- -- 74
2020-07-09 05:00:00 19.9 6 Este 18 Sudeste 0 -- -- 70
2020-07-09 04:00:00 20.9 7 Este 24 Sudeste 0 -- -- 67
2020-07-09 03:00:00 21.5 8 Este 25 Este 0 -- -- 64
2020-07-09 02:00:00 22.4 13 Sudeste 40 Sudeste 0 -- -- 59
2020-07-09 01:00:00 22.8 13 Sudeste 28 Sudeste 0 -- -- 57
2020-07-09 00:00:00 22.9 9 Este 25 Este 0 -- -- 58
2020-07-08 23:00:00 23.4 9 Este 32 Este 0 -- -- 62
2020-07-08 22:00:00 23.6 15 Este 38 Sudeste 1 -- -- 57
2020-07-08 21:00:00 24.3 13 Este 45 Este 0 -- -- 52
2020-07-08 20:00:00 24.1 22 Este 50 Este 0.2 -- -- 59
2020-07-08 19:00:00 23.7 22 Nordeste 44 Nordeste 0.4 -- -- 67
2020-07-08 18:00:00 21.4 15 Este 34 Sudeste 5 -- -- 69
2020-07-08 17:00:00 25.2 15 Nordeste 49 Nordeste 0.4 -- -- 58
2020-07-08 16:00:00 29.1 22 Nordeste 43 Este 0 -- -- 35
2020-07-08 15:00:00 32.1 28 Este 49 Este 0 -- -- 27
2020-07-08 14:00:00 31.1 18 Este 47 Este 0 -- -- 29
2020-07-08 13:00:00 30.8 17 Este 48 Este 0 -- -- 31
2020-07-08 12:00:00 29.5 19 Este 40 Nordeste 0 -- -- 37
2020-07-08 11:00:00 26.3 16 Este 35 Este 0 -- -- 43
2020-07-08 10:00:00 23.1 15 Este 37 Este 0 -- -- 53
2020-07-08 09:00:00 21.2 15 Este 36 Este 0 -- -- 58
2020-07-08 08:00:00 20.1 15 Este 27 Este 0 -- -- 63
2020-07-08 07:00:00 19.4 10 Este 28 Nordeste 0 -- -- 64
2020-07-08 06:00:00 19.7 12 Este 23 Este 0 -- -- 65
2020-07-08 05:00:00 20.1 12 Este 22 Este 0 -- -- 64
2020-07-08 04:00:00 20.9 9 Este 24 Sudeste 0 -- -- 61
2020-07-08 03:00:00 21.5 9 Este 23 Nordeste 0 -- -- 58
2020-07-08 02:00:00 22.6 12 Este 23 Este 0 -- -- 58
2020-07-08 01:00:00 24.1 10 Nordeste 31 Este 0 -- -- 58
2020-07-08 00:00:00 27.8 12 Nordeste 20 Este 0 -- -- 32
2020-07-07 23:00:00 30 7 Oeste 13 Sudoeste 0 -- -- 17
2020-07-07 22:00:00 31.9 7 Oeste 21 Oeste 0 -- -- 17
2020-07-07 21:00:00 35.7 4 Oeste 18 Sudoeste 0 -- -- 18
2020-07-07 20:00:00 39.1 5 Oeste 17 Oeste 0 -- -- 15
2020-07-07 19:00:00 39.2 10 Oeste 27 Oeste 0 -- -- 15
2020-07-07 18:00:00 39.2 13 Oeste 34 Noroeste 0 -- -- 14
2020-07-07 17:00:00 40.7 11 Noroeste 29 Oeste 0 -- -- 13
2020-07-07 16:00:00 38.5 18 Oeste 32 Oeste 0 -- -- 14
2020-07-07 15:00:00 37.8 13 Oeste 30 Oeste 0 -- -- 15
2020-07-07 14:00:00 38 7 Oeste 17 Oeste 0 -- -- 19
2020-07-07 13:00:00 36.5 4 Sudeste 13 Nordeste 0 -- -- 21
2020-07-07 12:00:00 35.7 6 Nordeste 11 Nordeste 0 -- -- 22
2020-07-07 11:00:00 30.8 5 Sudeste 14 Este 0 -- -- 27
2020-07-07 10:00:00 27.7 10 Nordeste 15 Nordeste 0 -- -- 33
2020-07-07 09:00:00 23.9 10 Nordeste 15 Nordeste 0 -- -- 41
2020-07-07 08:00:00 20.4 8 Nordeste 15 Nordeste 0 -- -- 49
2020-07-07 07:00:00 18.9 8 Nordeste 16 Nordeste 0 -- -- 53
2020-07-07 06:00:00 19.6 9 Este 15 Este 0 -- -- 51
2020-07-07 05:00:00 19.9 9 Este 15 Nordeste 0 -- -- 52
2020-07-07 04:00:00 21.3 9 Nordeste 15 Este 0 -- -- 48
2020-07-07 03:00:00 22.5 8 Este 18 Este 0 -- -- 44
2020-07-07 02:00:00 23.7 12 Este 28 Este 0 -- -- 41
2020-07-07 01:00:00 25.3 16 Este 28 Este 0 -- -- 38
2020-07-07 00:00:00 26.2 14 Nordeste 25 Nordeste 0 -- -- 35
2020-07-06 23:00:00 28 0 Calma 6 Noroeste 0 -- -- 26
2020-07-06 22:00:00 31.2 4 Noroeste 14 Noroeste 0 -- -- 21
2020-07-06 21:00:00 34.6 8 Noroeste 23 Oeste 0 -- -- 17
2020-07-06 20:00:00 38.4 9 Oeste 22 Oeste 0 -- -- 14
2020-07-06 19:00:00 37.7 12 Oeste 27 Noroeste 0 -- -- 15
2020-07-06 18:00:00 39 13 Oeste 29 Oeste 0 -- -- 14
2020-07-06 17:00:00 41.1 5 Norte 28 Oeste 0 -- -- 13
2020-07-06 16:00:00 39.2 10 Oeste 26 Sudoeste 0 -- -- 14
2020-07-06 15:00:00 39.4 9 Oeste 20 Noroeste 0 -- -- 14
2020-07-06 14:00:00 39.1 9 Noroeste 17 Noroeste 0 -- -- 16
2020-07-06 13:00:00 37.9 9 Noroeste 18 Noroeste 0 -- -- 18
2020-07-06 12:00:00 33.7 9 Oeste 17 Oeste 0 -- -- 23
2020-07-06 11:00:00 33.9 4 Noroeste 10 Noroeste 0 -- -- 24
2020-07-06 10:00:00 29 6 Nordeste 14 Nordeste 0 -- -- 32
2020-07-06 09:00:00 25.2 8 Nordeste 12 Nordeste 0 -- -- 44
2020-07-06 08:00:00 20.4 6 Nordeste 10 Nordeste 0 -- -- 54
2020-07-06 07:00:00 18.3 4 Este 14 Este 0 -- -- 57
2020-07-06 06:00:00 19.1 6 Este 17 Este 0 -- -- 47
2020-07-06 05:00:00 19.3 10 Este 21 Este 0 -- -- 45
2020-07-06 04:00:00 19.8 10 Nordeste 20 Nordeste 0 -- -- 46
2020-07-06 03:00:00 21.2 13 Este 22 Este 0 -- -- 46
2020-07-06 02:00:00 22.4 9 Este 23 Este 0 -- -- 55
2020-07-06 01:00:00 23.3 10 Este 15 Este 0 -- -- 43
2020-07-06 00:00:00 26.2 8 Este 13 Este 0 -- -- 25
2020-07-05 23:00:00 29.4 5 Norte 12 Norte 0 -- -- 21
2020-07-05 22:00:00 31 5 Noroeste 13 Noroeste 0 -- -- 18
2020-07-05 21:00:00 34.2 8 Noroeste 15 Noroeste 0 -- -- 15
2020-07-05 20:00:00 38 10 Noroeste 29 Noroeste 0 -- -- 13
2020-07-05 19:00:00 39.5 10 Noroeste 22 Oeste 0 -- -- 12
2020-07-05 18:00:00 38 13 Oeste 28 Oeste 0 -- -- 13
2020-07-05 17:00:00 40.1 5 Norte 23 Oeste 0 -- -- 13
2020-07-05 16:00:00 40 12 Noroeste 27 Noroeste 0 -- -- 13
2020-07-05 15:00:00 39.2 10 Noroeste 22 Noroeste 0 -- -- 15
2020-07-05 14:00:00 36.1 11 Nordeste 22 Nordeste 0 -- -- 19
2020-07-05 13:00:00 32.8 11 Este 20 Nordeste 0 -- -- 30
2020-07-05 12:00:00 30.6 11 Este 24 Sudeste 0 -- -- 38
2020-07-05 11:00:00 27.9 11 Este 27 Este 0 -- -- 46
2020-07-05 10:00:00 24.8 12 Este 27 Este 0 -- -- 55
2020-07-05 09:00:00 21.9 10 Este 22 Este 0 -- -- 67
2020-07-05 08:00:00 18.9 10 Este 22 Este 0 -- -- 82
2020-07-05 07:00:00 17.8 9 Este 19 Este 0 -- -- 85
2020-07-05 06:00:00 18.4 8 Este 23 Este 0 -- -- 84
2020-07-05 05:00:00 19 9 Este 26 Este 0 -- -- 81
2020-07-05 04:00:00 19.6 14 Este 28 Nordeste 0 -- -- 79
2020-07-05 03:00:00 20.2 15 Este 28 Este 0 -- -- 78
2020-07-05 02:00:00 21.1 15 Este 36 Nordeste 0 -- -- 75
2020-07-05 01:00:00 23.7 12 Este 35 Este 0 -- -- 57
2020-07-05 00:00:00 24.8 19 Nordeste 34 Este 0 -- -- 57
2020-07-04 23:00:00 27.8 6 Nordeste 11 Norte 0 -- -- 23
2020-07-04 22:00:00 29.3 4 Norte 13 Noroeste 0 -- -- 20
2020-07-04 21:00:00 32.9 8 Noroeste 17 Norte 0 -- -- 17
2020-07-04 20:00:00 37.5 9 Noroeste 20 Noroeste 0 -- -- 13
2020-07-04 19:00:00 36.6 12 Oeste 22 Oeste 0 -- -- 14
2020-07-04 18:00:00 37 11 Oeste 19 Norte 0 -- -- 14
2020-07-04 17:00:00 38.6 7 Norte 20 Noroeste 0 -- -- 13
2020-07-04 16:00:00 36.8 10 Nordeste 23 Noroeste 0 -- -- 14
2020-07-04 15:00:00 36.2 10 Noroeste 22 Oeste 0 -- -- 15
2020-07-04 14:00:00 34.6 11 Oeste 25 Oeste 0 -- -- 16
2020-07-04 13:00:00 32.7 6 Sudeste 17 Nordeste 0 -- -- 25
2020-07-04 12:00:00 31.8 6 Nordeste 17 Este 0 -- -- 27
2020-07-04 11:00:00 29 6 Este 15 Sudeste 0 -- -- 35
2020-07-04 10:00:00 25.6 9 Este 16 Este 0 -- -- 50
2020-07-04 09:00:00 21.8 7 Este 16 Sudeste 0 -- -- 72
2020-07-04 08:00:00 19.5 5 Este 12 Sudeste 0 -- -- 83
2020-07-04 07:00:00 17.7 5 Este 19 Este 0 -- -- 89
2020-07-04 06:00:00 18.2 12 Este 23 Este 0 -- -- 88
2020-07-04 05:00:00 18.6 12 Nordeste 23 Este 0 -- -- 86
2020-07-04 04:00:00 19.1 10 Este 21 Nordeste 0 -- -- 84
2020-07-04 03:00:00 19.9 11 Este 23 Este 0 -- -- 81
2020-07-04 02:00:00 20.6 12 Este 26 Este 0 -- -- 78
2020-07-04 01:00:00 21.5 15 Nordeste 24 Nordeste 0 -- -- 72
2020-07-04 00:00:00 23.1 6 Nordeste 17 Nordeste 0 -- -- 31
2020-07-03 23:00:00 26.2 6 Noroeste 12 Noroeste 0 -- -- 21
2020-07-03 22:00:00 28 8 Noroeste 18 Noroeste 0 -- -- 19
2020-07-03 21:00:00 30.6 13 Noroeste 21 Noroeste 0 -- -- 16
2020-07-03 20:00:00 33.8 14 Oeste 32 Noroeste 0 -- -- 13
2020-07-03 19:00:00 34.7 13 Noroeste 31 Noroeste 0 -- -- 14
2020-07-03 18:00:00 35.4 15 Noroeste 29 Sudoeste 0 -- -- 14
2020-07-03 17:00:00 33.7 13 Oeste 26 Oeste 0 -- -- 17
2020-07-03 16:00:00 34.4 10 Noroeste 30 Oeste 0 -- -- 16
2020-07-03 15:00:00 33.1 9 Oeste 31 Oeste 0 -- -- 18
2020-07-03 14:00:00 31.1 10 Sudoeste 23 Oeste 0 -- -- 21
2020-07-03 13:00:00 30.9 12 Oeste 32 Sudoeste 0 -- -- 24
2020-07-03 12:00:00 29.9 7 Oeste 16 Noroeste 0 -- -- 27
2020-07-03 11:00:00 28.3 4 Oeste 11 Oeste 0 -- -- 29
2020-07-03 10:00:00 25.4 4 Sudoeste 13 Oeste 0 -- -- 30
2020-07-03 09:00:00 22.4 9 Oeste 15 Oeste 0 -- -- 35
2020-07-03 08:00:00 19.2 8 Sudoeste 13 Oeste 0 -- -- 41
2020-07-03 07:00:00 17.2 5 Oeste 12 Sudoeste 0 -- -- 44
2020-07-03 06:00:00 17.6 7 Sudoeste 13 Sudoeste 0 -- -- 44
2020-07-03 05:00:00 17.8 5 Oeste 12 Oeste 0 -- -- 44
2020-07-03 04:00:00 18 6 Sudoeste 12 Sudoeste 0 -- -- 39
2020-07-03 03:00:00 19 8 Sudoeste 11 Sudoeste 0 -- -- 33
2020-07-03 02:00:00 19.9 5 Sudoeste 9 Oeste 0 -- -- 29
2020-07-03 01:00:00 22.4 8 Oeste 18 Oeste 0 -- -- 25
2020-07-03 00:00:00 24.1 11 Oeste 23 Sudoeste 0 -- -- 22
2020-07-02 23:00:00 25.6 14 Sudoeste 24 Oeste 0 -- -- 20
2020-07-02 22:00:00 27.1 12 Sudoeste 30 Oeste 0 -- -- 20
2020-07-02 21:00:00 29.7 22 Oeste 36 Oeste 0 -- -- 18
2020-07-02 20:00:00 31.7 25 Oeste 40 Oeste 0 -- -- 15
2020-07-02 19:00:00 32.9 26 Oeste 44 Oeste 0 -- -- 15
2020-07-02 18:00:00 33.7 23 Oeste 47 Oeste 0 -- -- 14
2020-07-02 17:00:00 34 26 Oeste 47 Oeste 0 -- -- 13
2020-07-02 16:00:00 33.8 24 Oeste 46 Sudoeste 0 -- -- 15
2020-07-02 15:00:00 33.4 24 Oeste 46 Oeste 0 -- -- 15
2020-07-02 14:00:00 33.1 26 Oeste 46 Oeste 0 -- -- 16
2020-07-02 13:00:00 31.7 25 Sudoeste 44 Sudoeste 0 -- -- 19
2020-07-02 12:00:00 31.3 19 Oeste 31 Oeste 0 -- -- 25
2020-07-02 11:00:00 29.9 15 Sudoeste 26 Sudoeste 0 -- -- 28
2020-07-02 10:00:00 28 12 Oeste 24 Sudoeste 0 -- -- 31
2020-07-02 09:00:00 25.4 16 Sudoeste 23 Sudoeste 0 -- -- 33
2020-07-02 08:00:00 21.8 10 Sudoeste 14 Sudoeste 0 -- -- 38
2020-07-02 07:00:00 18.2 4 Sudoeste 8 Sudoeste 0 -- -- 42
2020-07-02 06:00:00 18.3 3 Sudoeste 9 Sudoeste 0 -- -- 40
2020-07-02 05:00:00 19.3 6 Sudoeste 9 Sur 0 -- -- 36
2020-07-02 04:00:00 20.1 3 Sur 10 Sudoeste 0 -- -- 36
2020-07-02 03:00:00 22.1 6 Sudoeste 11 Oeste 0 -- -- 32
2020-07-02 02:00:00 22.7 5 Oeste 13 Sudoeste 0 -- -- 31
2020-07-02 01:00:00 23.9 5 Sudoeste 15 Sudoeste 0 -- -- 28
2020-07-02 00:00:00 26.1 9 Sudoeste 18 Sudoeste 0 -- -- 24
2020-07-01 23:00:00 27.2 8 Oeste 16 Oeste 0 -- -- 23
2020-07-01 22:00:00 29.9 11 Oeste 30 Oeste 0 -- -- 21
2020-07-01 21:00:00 32.4 21 Oeste 34 Oeste 0 -- -- 16
2020-07-01 20:00:00 34.7 21 Oeste 38 Sudoeste 0 -- -- 15
2020-07-01 19:00:00 36.2 20 Oeste 39 Oeste 0 -- -- 15
2020-07-01 18:00:00 35.7 24 Oeste 44 Sudoeste 0 -- -- 16
2020-07-01 17:00:00 36.2 21 Oeste 39 Oeste 0 -- -- 13
2020-07-01 16:00:00 36.1 19 Oeste 40 Sudoeste 0 -- -- 15
2020-07-01 15:00:00 35 21 Oeste 37 Oeste 0 -- -- 19
2020-07-01 14:00:00 34.1 17 Oeste 39 Oeste 0 -- -- 22
2020-07-01 13:00:00 32.6 18 Sudoeste 32 Oeste 0 -- -- 25
2020-07-01 12:00:00 31.3 14 Sudoeste 29 Oeste 0 -- -- 29
2020-07-01 11:00:00 29.9 20 Oeste 33 Oeste 0 -- -- 29
2020-07-01 10:00:00 28 17 Sudoeste 27 Sudoeste 0 -- -- 36
2020-07-01 09:00:00 25.5 16 Sudoeste 25 Sudoeste 0 -- -- 44
2020-07-01 08:00:00 23 4 Sudoeste 11 Sudoeste 0 -- -- 50
2020-07-01 07:00:00 20.8 7 Sudoeste 17 Sudoeste 0 -- -- 52
2020-07-01 06:00:00 21.1 9 Sudoeste 15 Sudoeste 0 -- -- 44
2020-07-01 05:00:00 22.2 7 Sudoeste 10 Sudoeste 0 -- -- 39
2020-07-01 04:00:00 23.2 6 Sudoeste 11 Sudoeste 0 -- -- 37
2020-07-01 03:00:00 24.8 3 Sudoeste 26 Sudoeste 0 -- -- 34
2020-07-01 02:00:00 25.1 13 Sudoeste 21 Sudoeste 0 -- -- 31
2020-07-01 01:00:00 25.8 14 Sudoeste 22 Sudoeste 0 -- -- 28
2020-07-01 00:00:00 25.9 11 Sudoeste 17 Sudoeste 0 -- -- 25
2020-06-30 23:00:00 28.6 10 Sudoeste 20 Sudoeste 0 -- -- 21
2020-06-30 22:00:00 31.4 12 Oeste 30 Sudoeste 0 -- -- 19
2020-06-30 21:00:00 34.6 18 Sudoeste 38 Sudoeste 0 -- -- 16
2020-06-30 20:00:00 37.2 17 Sudoeste 31 Sudoeste 0 -- -- 16
2020-06-30 19:00:00 39.8 6 Nordeste 24 Nordeste 0 -- -- 16
2020-06-30 18:00:00 39.1 15 Nordeste 34 Nordeste 0 -- -- 16
2020-06-30 17:00:00 40.9 10 Norte 25 Este 0 -- -- 14
2020-06-30 16:00:00 38.6 16 Nordeste 34 Este 0 -- -- 16
2020-06-30 15:00:00 37.4 18 Nordeste 34 Nordeste 0 -- -- 17
2020-06-30 14:00:00 36.6 11 Este 29 Nordeste 0 -- -- 18
2020-06-30 13:00:00 35 13 Este 30 Este 0 -- -- 20
2020-06-30 12:00:00 32.3 12 Este 26 Este 0 -- -- 26
2020-06-30 11:00:00 30 12 Este 27 Este 0 -- -- 31
2020-06-30 10:00:00 26.8 14 Nordeste 21 Este 0 -- -- 39
2020-06-30 09:00:00 23.5 11 Este 20 Este 0 -- -- 46
2020-06-30 08:00:00 20.5 11 Este 17 Este 0 -- -- 46
2020-06-30 07:00:00 18.7 10 Este 16 Este 0 -- -- 48
2020-06-30 06:00:00 19.2 8 Este 20 Este 0 -- -- 46
2020-06-30 05:00:00 19.9 11 Este 21 Este 0 -- -- 44
2020-06-30 04:00:00 20.4 13 Este 21 Este 0 -- -- 45
2020-06-30 03:00:00 21.6 11 Este 24 Este 0 -- -- 45
2020-06-30 02:00:00 22.9 9 Este 27 Este 0 -- -- 45
2020-06-30 01:00:00 24.4 15 Este 26 Este 0 -- -- 43
2020-06-30 00:00:00 27 6 Sudeste 15 Sudeste 0 -- -- 39
2020-06-29 23:00:00 28.6 6 Sudeste 14 Sudeste 0 -- -- 35
2020-06-29 22:00:00 30.7 5 Sudeste 21 Sudeste 0 -- -- 30
2020-06-29 21:00:00 33.6 13 Sudeste 23 Sudeste 0 -- -- 25
2020-06-29 20:00:00 37.4 7 Sudoeste 21 Oeste 0 -- -- 17
2020-06-29 19:00:00 38.7 10 Oeste 24 Oeste 0 -- -- 16
2020-06-29 18:00:00 39.3 13 Noroeste 24 Oeste 0 -- -- 17
2020-06-29 17:00:00 38 11 Oeste 30 Oeste 0 -- -- 18
2020-06-29 16:00:00 40.8 9 Norte 24 Oeste 0 -- -- 16
2020-06-29 15:00:00 36.5 14 Oeste 26 Oeste 0 -- -- 20
2020-06-29 14:00:00 37.5 8 Noroeste 20 Oeste 0 -- -- 20
2020-06-29 13:00:00 36.2 6 Oeste 14 Noroeste 0 -- -- 21
2020-06-29 12:00:00 34.6 6 Oeste 12 Noroeste 0 -- -- 25
2020-06-29 11:00:00 33 3 Oeste 9 Oeste 0 -- -- 27
2020-06-29 10:00:00 29.9 2 Sudoeste 4 Noroeste 0 -- -- 31
2020-06-29 09:00:00 25.4 2 Nordeste 8 Nordeste 0 -- -- 44
2020-06-29 08:00:00 20 4 Este 9 Sudeste 0 -- -- 61
2020-06-29 07:00:00 17.4 3 Este 10 Este 0 -- -- 69
2020-06-29 06:00:00 17.8 6 Este 12 Nordeste 0 -- -- 69
2020-06-29 05:00:00 18.4 6 Nordeste 13 Nordeste 0 -- -- 68
2020-06-29 04:00:00 19.4 8 Nordeste 13 Nordeste 0 -- -- 65
2020-06-29 03:00:00 20.6 8 Nordeste 12 Nordeste 0 -- -- 61
2020-06-29 02:00:00 22.4 6 Nordeste 15 Norte 0 -- -- 48
2020-06-29 01:00:00 23.7 0 Calma 8 Sudoeste 0 -- -- 42
2020-06-29 00:00:00 24.2 4 Sur 9 Sudeste 0 -- -- 39
2020-06-28 23:00:00 27.5 8 Sudeste 13 Este 0 -- -- 28
2020-06-28 22:00:00 29.5 4 Noroeste 15 Oeste 0 -- -- 26
2020-06-28 21:00:00 32.4 10 Noroeste 22 Oeste 0 -- -- 21
2020-06-28 20:00:00 36 12 Noroeste 24 Oeste 0 -- -- 18
2020-06-28 19:00:00 35.6 14 Oeste 26 Noroeste 0 -- -- 20
2020-06-28 18:00:00 36 9 Oeste 31 Sudoeste 0 -- -- 20
2020-06-28 17:00:00 36.9 11 Noroeste 34 Noroeste 0 -- -- 20
2020-06-28 16:00:00 35.4 11 Oeste 26 Oeste 0 -- -- 22
2020-06-28 15:00:00 34.1 8 Sudoeste 26 Oeste 0 -- -- 23
2020-06-28 14:00:00 34.7 5 Oeste 21 Oeste 0 -- -- 23
2020-06-28 13:00:00 33.6 5 Sudoeste 17 Sudoeste 0 -- -- 25
2020-06-28 12:00:00 33.8 5 Noroeste 12 Noroeste 0 -- -- 26
2020-06-28 11:00:00 31 4 Oeste 10 Oeste 0 -- -- 29
2020-06-28 10:00:00 28 2 Sudoeste 6 Este 0 -- -- 32
2020-06-28 09:00:00 24.6 2 Sudeste 5 Este 0 -- -- 37
2020-06-28 08:00:00 19.3 4 Sudeste 7 Sudeste 0 -- -- 48
2020-06-28 07:00:00 16.4 0 Calma 4 Sudeste 0 -- -- 54
2020-06-28 06:00:00 17.2 0 Calma 4 Sudoeste 0 -- -- 54
2020-06-28 05:00:00 18.4 3 Sudeste 8 Este 0 -- -- 49
2020-06-28 04:00:00 19.2 4 Sudoeste 5 Sudoeste 0 -- -- 47
2020-06-28 03:00:00 20.3 3 Sur 9 Nordeste 0 -- -- 45
2020-06-28 02:00:00 20.5 4 Sudoeste 12 Sudoeste 0 -- -- 43
2020-06-28 01:00:00 22.8 4 Sudoeste 15 Oeste 0 -- -- 38
2020-06-28 00:00:00 25.8 10 Oeste 21 Oeste 0 -- -- 32
2020-06-27 23:00:00 26 9 Oeste 15 Oeste 0 -- -- 32
2020-06-27 22:00:00 27.2 6 Sudoeste 19 Sudoeste 0 -- -- 30
2020-06-27 21:00:00 30.2 9 Oeste 21 Oeste 0 -- -- 25
2020-06-27 20:00:00 32.5 12 Oeste 27 Oeste 0 -- -- 22
2020-06-27 19:00:00 33 17 Oeste 30 Oeste 0 -- -- 20
2020-06-27 18:00:00 33.5 14 Oeste 31 Oeste 0 -- -- 20
2020-06-27 17:00:00 33.1 10 Sudoeste 28 Sudoeste 0 -- -- 21
2020-06-27 16:00:00 33.2 10 Oeste 28 Oeste 0 -- -- 20
2020-06-27 15:00:00 31.9 9 Oeste 29 Oeste 0 -- -- 22
2020-06-27 14:00:00 31 11 Oeste 24 Oeste 0 -- -- 23
2020-06-27 13:00:00 29.2 12 Oeste 28 Oeste 0 -- -- 25
2020-06-27 12:00:00 29.1 10 Oeste 22 Noroeste 0 -- -- 27
2020-06-27 11:00:00 26.3 8 Oeste 22 Oeste 0 -- -- 32
2020-06-27 10:00:00 24 11 Oeste 21 Sudoeste 0 -- -- 35
2020-06-27 09:00:00 20.7 10 Sudoeste 19 Oeste 0 -- -- 39
2020-06-27 08:00:00 17.9 8 Oeste 17 Oeste 0 -- -- 42
2020-06-27 07:00:00 16.4 6 Sudoeste 13 Oeste 0 -- -- 44
2020-06-27 06:00:00 17 6 Sudoeste 14 Oeste 0 -- -- 41
2020-06-27 05:00:00 16.5 7 Sudoeste 12 Oeste 0 -- -- 41
2020-06-27 04:00:00 17.6 8 Oeste 12 Sudoeste 0 -- -- 37
2020-06-27 03:00:00 17.7 6 Sudoeste 14 Sudoeste 0 -- -- 35
2020-06-27 02:00:00 18.6 6 Sudoeste 13 Sudoeste 0 -- -- 35
2020-06-27 01:00:00 21.3 7 Oeste 17 Oeste 0 -- -- 30
2020-06-27 00:00:00 23.9 11 Oeste 19 Oeste 0 -- -- 26
2020-06-26 23:00:00 25 9 Oeste 19 Oeste 0 -- -- 27
2020-06-26 22:00:00 26.9 15 Oeste 33 Oeste 0 -- -- 26
2020-06-26 21:00:00 28.9 21 Oeste 36 Oeste 0 -- -- 27
2020-06-26 20:00:00 30.6 22 Oeste 37 Oeste 0 -- -- 26
2020-06-26 19:00:00 33.2 19 Oeste 33 Oeste 0 -- -- 18
2020-06-26 18:00:00 32.1 15 Sudoeste 33 Oeste 0 -- -- 24
2020-06-26 17:00:00 32.8 14 Sudoeste 30 Sudoeste 0 -- -- 21
2020-06-26 16:00:00 33.7 8 Sur 27 Oeste 0 -- -- 25
2020-06-26 15:00:00 33.2 18 Oeste 30 Sudoeste 0 -- -- 27
2020-06-26 14:00:00 32.5 10 Sudoeste 23 Oeste 0 -- -- 29
2020-06-26 13:00:00 32.3 7 Nordeste 18 Nordeste 0 -- -- 30
2020-06-26 12:00:00 30 5 Sudoeste 17 Sudoeste 0 -- -- 33
2020-06-26 11:00:00 29.7 4 Sudoeste 11 Sudeste 0 -- -- 35
2020-06-26 10:00:00 27.5 3 Sudeste 14 Nordeste 0 -- -- 40
2020-06-26 09:00:00 23.2 8 Este 15 Este 0 -- -- 46
2020-06-26 08:00:00 19.6 6 Este 12 Nordeste 0 -- -- 53
2020-06-26 07:00:00 18.3 3 Sur 12 Este 0 -- -- 62
2020-06-26 06:00:00 17.9 8 Este 14 Este 0 -- -- 54
2020-06-26 05:00:00 18.3 9 Nordeste 14 Este 0 -- -- 51
2020-06-26 04:00:00 19.7 9 Nordeste 13 Nordeste 0 -- -- 44
2020-06-26 03:00:00 21 5 Este 18 Este 0 -- -- 39
2020-06-26 02:00:00 21.9 9 Sudeste 28 Sudeste 0 -- -- 35
2020-06-26 01:00:00 22.8 15 Sudeste 31 Sudeste 0 -- -- 31
2020-06-26 00:00:00 23.2 17 Este 29 Este 0 -- -- 29
2020-06-25 23:00:00 25.2 6 Este 21 Este 0 -- -- 28
2020-06-25 22:00:00 28.4 13 Sudeste 27 Sudeste 0 -- -- 25
2020-06-25 21:00:00 31 12 Sudeste 37 Este 0 -- -- 22
2020-06-25 20:00:00 33.2 20 Sudeste 44 Sudeste 0 -- -- 20
2020-06-25 19:00:00 32.7 22 Sudeste 51 Sudeste 0 -- -- 20
2020-06-25 18:00:00 34.1 19 Sudeste 41 Sudeste 0 -- -- 19
2020-06-25 17:00:00 35.5 17 Este 38 Sudeste 0 -- -- 17
2020-06-25 16:00:00 35.1 18 Este 40 Sudeste 0 -- -- 17
2020-06-25 15:00:00 34.2 18 Este 37 Sudeste 0 -- -- 18
2020-06-25 14:00:00 33 16 Sudeste 33 Sudeste 0 -- -- 21
2020-06-25 13:00:00 32.3 11 Sudeste 24 Sudeste 0 -- -- 24
2020-06-25 12:00:00 31 10 Este 24 Nordeste 0 -- -- 28
2020-06-25 11:00:00 28 12 Este 21 Este 0 -- -- 37
2020-06-25 10:00:00 24.7 12 Nordeste 18 Este 0 -- -- 49
2020-06-25 09:00:00 22.3 7 Este 17 Este 0 -- -- 55
2020-06-25 08:00:00 18.2 8 Este 17 Nordeste 0 -- -- 74
2020-06-25 07:00:00 17 9 Este 23 Nordeste 0 -- -- 77
2020-06-25 06:00:00 17.4 9 Este 24 Nordeste 0 -- -- 74
2020-06-25 05:00:00 17.3 10 Este 23 Este 0 -- -- 76
2020-06-25 04:00:00 18.3 8 Este 21 Este 0 -- -- 72
2020-06-25 03:00:00 19.6 10 Este 24 Nordeste 0 -- -- 57
2020-06-25 02:00:00 20.3 12 Este 24 Este 0 -- -- 48
2020-06-25 01:00:00 21.3 11 Este 21 Nordeste 0 -- -- 39
2020-06-25 00:00:00 22.5 12 Este 19 Nordeste 0 -- -- 38
2020-06-24 23:00:00 23.9 10 Nordeste 15 Este 0 -- -- 34
2020-06-24 22:00:00 26.2 8 Este 22 Este 0 -- -- 32
2020-06-24 21:00:00 30 13 Este 28 Este 0 -- -- 24
2020-06-24 20:00:00 31.7 18 Este 37 Este 0 -- -- 22
2020-06-24 19:00:00 33.2 17 Este 27 Este 0 -- -- 22
2020-06-24 18:00:00 31.5 14 Este 35 Nordeste 0 -- -- 26
2020-06-24 17:00:00 33.2 15 Nordeste 31 Nordeste 0 -- -- 26
2020-06-24 16:00:00 29.5 12 Nordeste 19 Nordeste 0 -- -- 39
2020-06-24 15:00:00 25.1 4 Nordeste 18 Este 0.4 -- -- 53
2020-06-24 14:00:00 25.8 11 Nordeste 19 Este 0 -- -- 49
2020-06-24 13:00:00 25.4 11 Nordeste 17 Nordeste 0 -- -- 44
2020-06-24 12:00:00 25.8 12 Nordeste 18 Nordeste 0 -- -- 43
2020-06-24 11:00:00 25 7 Este 17 Este 0 -- -- 44
2020-06-24 10:00:00 21.8 12 Sudeste 26 Este 0 -- -- 51
2020-06-24 09:00:00 21.1 18 Sudeste 31 Sudeste 0 -- -- 51
2020-06-24 08:00:00 19.1 14 Sudeste 27 Nordeste 0 -- -- 58
2020-06-24 07:00:00 18.4 18 Nordeste 29 Nordeste 0 -- -- 61
2020-06-24 06:00:00 18.6 13 Nordeste 26 Nordeste 0 -- -- 64
2020-06-24 05:00:00 18.8 13 Este 28 Este 0 -- -- 63
2020-06-24 04:00:00 19.5 9 Este 26 Este 0 -- -- 57
2020-06-24 03:00:00 19.8 10 Este 27 Este 0 -- -- 56
2020-06-24 02:00:00 20.7 12 Este 28 Este 0 -- -- 54
2020-06-24 01:00:00 21.8 12 Este 27 Este 0 -- -- 51
2020-06-24 00:00:00 23.2 12 Nordeste 18 Este 0 -- -- 48
2020-06-23 23:00:00 25.6 7 Este 23 Sudeste 0 -- -- 40
2020-06-23 22:00:00 27.6 6 Este 20 Nordeste 0 -- -- 34
2020-06-23 21:00:00 31 10 Este 27 Este 0 -- -- 27
2020-06-23 20:00:00 33.5 16 Este 32 Este 0 -- -- 21
2020-06-23 19:00:00 35.3 15 Este 33 Nordeste 0 -- -- 18
2020-06-23 18:00:00 36.4 14 Este 31 Este 0 -- -- 16
2020-06-23 17:00:00 37.4 17 Nordeste 30 Nordeste 0 -- -- 16
2020-06-23 16:00:00 36.4 12 Este 28 Este 0 -- -- 18
2020-06-23 15:00:00 35.4 14 Este 32 Este 0 -- -- 20
2020-06-23 14:00:00 34 14 Este 33 Nordeste 0 -- -- 22
2020-06-23 13:00:00 32.3 13 Este 34 Nordeste 0 -- -- 25
2020-06-23 12:00:00 30.5 16 Este 31 Este 0 -- -- 29
2020-06-23 11:00:00 28 12 Este 24 Este 0 -- -- 33
2020-06-23 10:00:00 24.4 15 Este 27 Este 0 -- -- 42
2020-06-23 09:00:00 20.6 10 Este 25 Nordeste 0 -- -- 54
2020-06-23 08:00:00 17.8 11 Este 26 Sudeste 0 -- -- 63
2020-06-23 07:00:00 16.4 11 Este 27 Este 0 -- -- 67
2020-06-23 06:00:00 16.9 9 Este 23 Este 0 -- -- 65
2020-06-23 05:00:00 17.7 12 Este 30 Este 0 -- -- 59
2020-06-23 04:00:00 18.6 13 Este 34 Este 0 -- -- 58
2020-06-23 03:00:00 19.1 19 Este 36 Este 0 -- -- 58
2020-06-23 02:00:00 19.6 19 Este 35 Nordeste 0 -- -- 57
2020-06-23 01:00:00 20.7 16 Este 25 Nordeste 0 -- -- 52
2020-06-23 00:00:00 22.7 8 Nordeste 12 Nordeste 0 -- -- 44
2020-06-22 23:00:00 24.9 4 Este 23 Sudeste 0 -- -- 39
2020-06-22 22:00:00 27.5 15 Sudeste 29 Sudeste 0 -- -- 33
2020-06-22 21:00:00 30.1 17 Sudeste 30 Sudeste 0 -- -- 28
2020-06-22 20:00:00 33.5 12 Este 23 Sudeste 0 -- -- 21
2020-06-22 19:00:00 35.1 11 Este 22 Sudeste 0 -- -- 18
2020-06-22 18:00:00 36.6 12 Nordeste 25 Nordeste 0 -- -- 16
2020-06-22 17:00:00 36.6 10 Este 26 Este 0 -- -- 16
2020-06-22 16:00:00 37.2 8 Nordeste 31 Nordeste 0 -- -- 15
2020-06-22 15:00:00 35.4 20 Nordeste 33 Este 0 -- -- 18
2020-06-22 14:00:00 34 15 Este 31 Nordeste 0 -- -- 21
2020-06-22 13:00:00 32.4 14 Este 31 Sudeste 0 -- -- 23
2020-06-22 12:00:00 29.8 17 Sudeste 31 Sudeste 0 -- -- 30
2020-06-22 11:00:00 27.9 12 Este 30 Este 0 -- -- 37
2020-06-22 10:00:00 24.8 14 Este 29 Este 0 -- -- 44
2020-06-22 09:00:00 22.2 16 Este 27 Este 0 -- -- 48
2020-06-22 08:00:00 19.8 10 Este 20 Nordeste 0 -- -- 57
2020-06-22 07:00:00 17.4 5 Este 21 Este 0 -- -- 67
2020-06-22 06:00:00 17.9 9 Este 16 Este 0 -- -- 67
2020-06-22 05:00:00 18.2 8 Nordeste 14 Este 0 -- -- 66
2020-06-22 04:00:00 18.6 8 Nordeste 13 Nordeste 0 -- -- 66
2020-06-22 03:00:00 19.5 5 Este 12 Este 0 -- -- 62
2020-06-22 02:00:00 20.4 6 Este 17 Este 0 -- -- 56
2020-06-22 01:00:00 21 6 Este 17 Este 0 -- -- 32
2020-06-22 00:00:00 22.8 0 Calma 12 Norte 0 -- -- 32
2020-06-21 23:00:00 25 0 Calma 5 Nordeste 0 -- -- 28
2020-06-21 22:00:00 27.9 2 Este 6 Noroeste 0 -- -- 23
2020-06-21 21:00:00 31.5 4 Oeste 16 Sudoeste 0 -- -- 18
2020-06-21 20:00:00 34.3 8 Sudoeste 22 Oeste 0 -- -- 15
2020-06-21 19:00:00 36.8 4 Noroeste 22 Noroeste 0 -- -- 13
2020-06-21 18:00:00 36.7 10 Noroeste 22 Oeste 0 -- -- 13
2020-06-21 17:00:00 35.5 8 Oeste 27 Oeste 0 -- -- 14
2020-06-21 16:00:00 34.9 9 Oeste 24 Noroeste 0 -- -- 14
2020-06-21 15:00:00 34.7 12 Noroeste 25 Oeste 0 -- -- 16
2020-06-21 14:00:00 32.6 14 Oeste 27 Oeste 0 -- -- 19
2020-06-21 13:00:00 32.9 11 Oeste 22 Oeste 0 -- -- 19
2020-06-21 12:00:00 30.2 12 Oeste 23 Sudoeste 0 -- -- 23
2020-06-21 11:00:00 27.8 11 Oeste 21 Oeste 0 -- -- 26
2020-06-21 10:00:00 25.4 14 Oeste 23 Oeste 0 -- -- 28
2020-06-21 09:00:00 23.4 15 Oeste 23 Oeste 0 -- -- 30
2020-06-21 08:00:00 19.3 3 Sudoeste 7 Sudoeste 0 -- -- 36
2020-06-21 07:00:00 15 2 Sudoeste 8 Sudoeste 0 -- -- 42
2020-06-21 06:00:00 16.4 2 Sudoeste 9 Sudoeste 0 -- -- 36
2020-06-21 05:00:00 16.6 4 Sudoeste 9 Sudoeste 0 -- -- 36
2020-06-21 04:00:00 17.3 5 Sudoeste 12 Sudoeste 0 -- -- 35
2020-06-21 03:00:00 17.2 0 Calma 6 Sudoeste 0 -- -- 36
2020-06-21 02:00:00 18.2 0 Calma 6 Sudoeste 0 -- -- 36
2020-06-21 01:00:00 19.3 3 Oeste 8 Sudoeste 0 -- -- 35
2020-06-21 00:00:00 22.1 5 Sudoeste 12 Oeste 0 -- -- 29
2020-06-20 23:00:00 25.2 8 Oeste 14 Oeste 0 -- -- 25
2020-06-20 22:00:00 26.6 7 Oeste 17 Oeste 0 -- -- 23
2020-06-20 21:00:00 29.9 11 Oeste 29 Oeste 0 -- -- 17
2020-06-20 20:00:00 32.2 14 Oeste 33 Oeste 0 -- -- 15
2020-06-20 19:00:00 33 14 Oeste 30 Oeste 0 -- -- 14
2020-06-20 18:00:00 33.8 17 Oeste 31 Oeste 0 -- -- 14
2020-06-20 17:00:00 32.9 18 Oeste 36 Oeste 0 -- -- 14
2020-06-20 16:00:00 33.3 14 Oeste 29 Oeste 0 -- -- 15
2020-06-20 15:00:00 32.9 13 Oeste 30 Oeste 0 -- -- 17
2020-06-20 14:00:00 32.4 12 Noroeste 27 Oeste 0 -- -- 17
2020-06-20 13:00:00 30.9 10 Oeste 25 Oeste 0 -- -- 20
2020-06-20 12:00:00 30.6 7 Noroeste 16 Oeste 0 -- -- 20
2020-06-20 11:00:00 28.6 7 Oeste 17 Oeste 0 -- -- 22
2020-06-20 10:00:00 25.2 6 Oeste 13 Oeste 0 -- -- 29
2020-06-20 09:00:00 22.8 4 Sur 12 Sudoeste 0 -- -- 32
2020-06-20 08:00:00 17.1 6 Este 11 Este 0 -- -- 48
2020-06-20 07:00:00 14.1 7 Este 9 Este 0 -- -- 53
2020-06-20 06:00:00 14.4 0 Calma 7 Sur 0 -- -- 51
2020-06-20 05:00:00 14.8 2 Sur 9 Sur 0 -- -- 49
2020-06-20 04:00:00 15.6 0 Calma 10 Sur 0 -- -- 45
2020-06-20 03:00:00 16 5 Sudeste 12 Sur 0 -- -- 41
2020-06-20 02:00:00 18.2 2 Sudeste 8 Sudoeste 0 -- -- 38
2020-06-20 01:00:00 18.8 6 Sudoeste 9 Sudoeste 0 -- -- 37
2020-06-20 00:00:00 20.2 6 Sudoeste 12 Oeste 0 -- -- 34
2020-06-19 23:00:00 22.9 7 Oeste 13 Oeste 0 -- -- 29
2020-06-19 22:00:00 25.6 8 Oeste 17 Oeste 0 -- -- 24
2020-06-19 21:00:00 28 12 Oeste 24 Oeste 0 -- -- 21
2020-06-19 20:00:00 30.1 18 Oeste 29 Oeste 0 -- -- 19
2020-06-19 19:00:00 31.8 14 Oeste 31 Sudoeste 0 -- -- 18
2020-06-19 18:00:00 31.3 15 Oeste 40 Oeste 0 -- -- 18
2020-06-19 17:00:00 31.5 14 Oeste 37 Oeste 0 -- -- 20
2020-06-19 16:00:00 31.1 18 Oeste 36 Oeste 0 -- -- 20
2020-06-19 15:00:00 30.6 6 Sudoeste 35 Sudoeste 0 -- -- 21
2020-06-19 14:00:00 30 12 Sudoeste 26 Sudoeste 0 -- -- 22
2020-06-19 13:00:00 30.7 3 Este 21 Oeste 0 -- -- 24
2020-06-19 12:00:00 28.1 5 Sudoeste 15 Sudoeste 0 -- -- 28
2020-06-19 11:00:00 25.9 8 Sudoeste 15 Oeste 0 -- -- 32
2020-06-19 10:00:00 23.1 8 Sudoeste 16 Sudoeste 0 -- -- 36
2020-06-19 09:00:00 21 4 Sur 10 Sur 0 -- -- 45
2020-06-19 08:00:00 16.6 3 Este 11 Sudeste 0 -- -- 67
2020-06-19 07:00:00 14.5 7 Sudeste 15 Sudeste 0 -- -- 87
2020-06-19 06:00:00 15.8 6 Este 18 Nordeste 0 -- -- 87
2020-06-19 05:00:00 16.4 10 Este 22 Este 0 -- -- 86
2020-06-19 04:00:00 16.5 10 Este 22 Este 0 -- -- 85
2020-06-19 03:00:00 16.9 13 Este 22 Este 0 -- -- 83
2020-06-19 02:00:00 17.9 9 Este 22 Este 0 -- -- 78
2020-06-19 01:00:00 18.5 9 Este 27 Nordeste 0 -- -- 76
2020-06-19 00:00:00 19.9 17 Este 32 Este 0 -- -- 69
2020-06-18 23:00:00 22.6 5 Norte 12 Norte 0 -- -- 31
2020-06-18 22:00:00 24.8 6 Oeste 18 Oeste 0 -- -- 28
2020-06-18 21:00:00 27.2 12 Noroeste 24 Oeste 0 -- -- 23
2020-06-18 20:00:00 30.5 12 Noroeste 26 Oeste 0 -- -- 20
2020-06-18 19:00:00 30.8 15 Oeste 27 Oeste 0 -- -- 19
2020-06-18 18:00:00 30.5 18 Oeste 34 Oeste 0 -- -- 18
2020-06-18 17:00:00 31 11 Oeste 33 Sur 0 -- -- 18
2020-06-18 16:00:00 30.2 13 Oeste 32 Oeste 0 -- -- 20
2020-06-18 15:00:00 28.9 13 Sudoeste 29 Oeste 0 -- -- 22
2020-06-18 14:00:00 27.6 9 Sur 24 Oeste 0 -- -- 25
2020-06-18 13:00:00 26.5 8 Sudoeste 23 Oeste 0 -- -- 26
2020-06-18 12:00:00 26.4 4 Sudeste 14 Oeste 0 -- -- 29
2020-06-18 11:00:00 23.9 5 Nordeste 17 Nordeste 0 -- -- 38
2020-06-18 10:00:00 20.8 7 Nordeste 14 Nordeste 0 -- -- 50
2020-06-18 09:00:00 16.3 9 Nordeste 13 Nordeste 0 -- -- 73
2020-06-18 08:00:00 15.1 4 Este 6 Este 0 -- -- 67
2020-06-18 07:00:00 11.2 3 Este 9 Este 0 -- -- 57
2020-06-18 06:00:00 11.1 2 Nordeste 5 Sudeste 0 -- -- 54
2020-06-18 05:00:00 12.1 3 Sudeste 11 Este 0 -- -- 51
2020-06-18 04:00:00 12.8 3 Sudeste 9 Sudeste 0 -- -- 60
2020-06-18 03:00:00 14.5 4 Este 10 Este 0 -- -- 81
2020-06-18 02:00:00 15.2 7 Sudeste 16 Este 0 -- -- 69
2020-06-18 01:00:00 16.2 5 Este 14 Nordeste 0 -- -- 37
2020-06-18 00:00:00 18 6 Sudoeste 9 Sudoeste 0 -- -- 32
2020-06-17 23:00:00 18.9 5 Sudoeste 12 Oeste 0 -- -- 31
2020-06-17 22:00:00 21.1 6 Sudoeste 20 Oeste 0 -- -- 27
2020-06-17 21:00:00 24.1 12 Sudoeste 30 Sudoeste 0 -- -- 21
2020-06-17 20:00:00 26.2 18 Oeste 33 Sudoeste 0 -- -- 20
2020-06-17 19:00:00 27.2 21 Oeste 37 Sudoeste 0 -- -- 18
2020-06-17 18:00:00 27.4 17 Oeste 41 Oeste 0 -- -- 19
2020-06-17 17:00:00 27.2 21 Sudoeste 44 Oeste 0 -- -- 20
2020-06-17 16:00:00 26.9 21 Sudoeste 41 Oeste 0 -- -- 22
2020-06-17 15:00:00 26.3 20 Oeste 46 Oeste 0 -- -- 25
2020-06-17 14:00:00 24.6 19 Oeste 39 Oeste 0 -- -- 31
2020-06-17 13:00:00 23.6 20 Oeste 41 Oeste 0 -- -- 37
2020-06-17 12:00:00 22.8 15 Oeste 26 Sudoeste 0 -- -- 40
2020-06-17 11:00:00 21.8 9 Oeste 22 Sudoeste 0 -- -- 43
2020-06-17 10:00:00 20.1 10 Oeste 19 Oeste 0 -- -- 47
2020-06-17 09:00:00 18 13 Oeste 21 Oeste 0 -- -- 54
2020-06-17 08:00:00 15.7 8 Sudoeste 16 Oeste 0 -- -- 63
2020-06-17 07:00:00 12.2 4 Sudoeste 12 Sudoeste 0 -- -- 72
2020-06-17 06:00:00 12.6 7 Sudoeste 13 Sudoeste 0 -- -- 69
2020-06-17 05:00:00 12.7 5 Oeste 8 Sudoeste 0 -- -- 68
2020-06-17 04:00:00 13.5 5 Sudoeste 8 Sudoeste 0 -- -- 65
2020-06-17 03:00:00 14.3 2 Sur 5 Sudoeste 0 -- -- 62
2020-06-17 02:00:00 15.5 2 Sudoeste 9 Sudoeste 0 -- -- 57
2020-06-17 01:00:00 18.1 4 Noroeste 14 Noroeste 0 -- -- 49
2020-06-17 00:00:00 19.5 9 Noroeste 27 Oeste 0 -- -- 44
2020-06-16 23:00:00 22.2 15 Oeste 29 Oeste 0 -- -- 36
2020-06-16 22:00:00 21.6 19 Sudoeste 38 Sudoeste 0 -- -- 42
2020-06-16 21:00:00 23.9 17 Oeste 36 Sudoeste 0 -- -- 32
2020-06-16 20:00:00 25.3 22 Oeste 35 Oeste 0 -- -- 28
2020-06-16 19:00:00 26.3 19 Oeste 37 Oeste 0 -- -- 27
2020-06-16 18:00:00 25.9 19 Oeste 37 Oeste 0 -- -- 29
2020-06-16 17:00:00 27.5 17 Noroeste 38 Oeste 0 -- -- 28
2020-06-16 16:00:00 27.5 22 Oeste 40 Noroeste 0 -- -- 27
2020-06-16 15:00:00 28.7 19 Oeste 39 Oeste 0 -- -- 26
2020-06-16 14:00:00 26.3 20 Oeste 38 Oeste 0 -- -- 30
2020-06-16 13:00:00 25 18 Sudoeste 37 Oeste 0 -- -- 34
2020-06-16 12:00:00 23.8 14 Oeste 27 Oeste 0 -- -- 36
2020-06-16 11:00:00 22.4 12 Oeste 23 Sudoeste 0 -- -- 40
2020-06-16 10:00:00 19.7 12 Sudoeste 21 Oeste 0 -- -- 45
2020-06-16 09:00:00 18.3 14 Oeste 23 Oeste 0 -- -- 47
2020-06-16 08:00:00 17.1 10 Sudoeste 18 Sudoeste 0 -- -- 48
2020-06-16 07:00:00 13.9 6 Sudoeste 12 Oeste 0 -- -- 53
2020-06-16 06:00:00 14.6 6 Sudoeste 13 Sudoeste 0 -- -- 48
2020-06-16 05:00:00 16.1 6 Sudoeste 13 Sudoeste 0 -- -- 42
2020-06-16 04:00:00 16.9 6 Sudoeste 12 Sudoeste 0 -- -- 39
2020-06-16 03:00:00 17.6 6 Oeste 10 Sudoeste 0 -- -- 36
2020-06-16 02:00:00 17.6 6 Sudoeste 10 Sudoeste 0 -- -- 37
2020-06-16 01:00:00 17.8 6 Sudoeste 12 Sudoeste 0 -- -- 37
2020-06-16 00:00:00 19 7 Sudoeste 10 Sudoeste 0 -- -- 33
2020-06-15 23:00:00 21.3 8 Oeste 20 Oeste 0 -- -- 28
2020-06-15 22:00:00 23.1 12 Oeste 27 Oeste 0 -- -- 25
2020-06-15 21:00:00 25.2 18 Oeste 32 Oeste 0 -- -- 23
2020-06-15 20:00:00 27.2 21 Oeste 37 Oeste 0 -- -- 21
2020-06-15 19:00:00 28.3 21 Oeste 39 Oeste 0 -- -- 18
2020-06-15 18:00:00 28.6 20 Oeste 41 Oeste 0 -- -- 19
2020-06-15 17:00:00 28.5 21 Oeste 42 Oeste 0 -- -- 20
2020-06-15 16:00:00 28 21 Oeste 36 Oeste 0 -- -- 21
2020-06-15 15:00:00 27.3 16 Oeste 37 Oeste 0 -- -- 23
2020-06-15 14:00:00 26 21 Oeste 38 Oeste 0 -- -- 27
2020-06-15 13:00:00 25.1 19 Oeste 34 Oeste 0 -- -- 29
2020-06-15 12:00:00 24.3 16 Oeste 26 Oeste 0 -- -- 32
2020-06-15 11:00:00 22.6 11 Oeste 26 Oeste 0 -- -- 36
2020-06-15 10:00:00 20.2 15 Oeste 25 Sudoeste 0 -- -- 40
2020-06-15 09:00:00 18.4 15 Sudoeste 23 Sudoeste 0 -- -- 45
2020-06-15 08:00:00 15.8 10 Sudoeste 15 Sudoeste 0 -- -- 50
2020-06-15 07:00:00 12.1 2 Sudoeste 9 Sudoeste 0 -- -- 54
2020-06-15 06:00:00 12.5 4 Sudoeste 11 Sudoeste 0 -- -- 50
2020-06-15 05:00:00 13 6 Sudoeste 12 Sudoeste 0 -- -- 47
2020-06-15 04:00:00 13.5 5 Sudoeste 12 Oeste 0 -- -- 45
2020-06-15 03:00:00 14.1 6 Sudoeste 12 Sudoeste 0 -- -- 46
2020-06-15 02:00:00 14.6 6 Sudoeste 12 Sudoeste 0 -- -- 46
2020-06-15 01:00:00 15.5 6 Sudoeste 12 Sudoeste 0 -- -- 45
2020-06-15 00:00:00 18.7 7 Oeste 15 Oeste 0 -- -- 36
2020-06-14 23:00:00 19.8 10 Oeste 16 Oeste 0 -- -- 34
2020-06-14 22:00:00 22 12 Oeste 21 Sudoeste 0 -- -- 30
2020-06-14 21:00:00 24.1 15 Sudoeste 30 Oeste 0 -- -- 27
2020-06-14 20:00:00 26.2 17 Oeste 33 Oeste 0 -- -- 24
2020-06-14 19:00:00 27 19 Oeste 35 Oeste 0 -- -- 23
2020-06-14 18:00:00 27.4 20 Oeste 37 Sudoeste 0 -- -- 23
2020-06-14 17:00:00 27.5 18 Oeste 32 Sudoeste 0 -- -- 23
2020-06-14 16:00:00 27.2 16 Oeste 38 Oeste 0 -- -- 23
2020-06-14 15:00:00 25.7 15 Oeste 36 Oeste 0 -- -- 27
2020-06-14 14:00:00 25.4 17 Oeste 33 Oeste 0 -- -- 28
2020-06-14 13:00:00 24.1 15 Oeste 28 Oeste 0 -- -- 30
2020-06-14 12:00:00 22.9 12 Oeste 22 Oeste 0 -- -- 33
2020-06-14 11:00:00 22.5 8 Oeste 14 Oeste 0 -- -- 35
2020-06-14 10:00:00 20.2 7 Oeste 14 Oeste 0 -- -- 39
2020-06-14 09:00:00 15.4 5 Oeste 8 Oeste 0 -- -- 51
2020-06-14 08:00:00 13.2 2 Oeste 5 Sudoeste 0 -- -- 59
2020-06-14 07:00:00 12.5 3 Sudoeste 5 Sudoeste 0 -- -- 57
2020-06-14 06:00:00 11.9 3 Oeste 5 Oeste 0 -- -- 60
2020-06-14 05:00:00 11.7 0 Calma 7 Sudoeste 0 -- -- 58
2020-06-14 04:00:00 12.3 4 Sudoeste 6 Sur 0 -- -- 55
2020-06-14 03:00:00 12.2 5 Sudoeste 7 Sudoeste 0 -- -- 55
2020-06-14 02:00:00 12.9 0 Calma 8 Sudoeste 0 -- -- 53
2020-06-14 01:00:00 14.2 4 Sudoeste 10 Oeste 0 -- -- 49
2020-06-14 00:00:00 16.2 8 Oeste 14 Oeste 0 -- -- 43
2020-06-13 23:00:00 17.7 9 Oeste 15 Oeste 0 -- -- 38
2020-06-13 22:00:00 19.5 9 Oeste 25 Oeste 0 -- -- 34
2020-06-13 21:00:00 21.7 15 Oeste 28 Sudoeste 0 -- -- 28
2020-06-13 20:00:00 23.8 17 Oeste 31 Oeste 0 -- -- 25
2020-06-13 19:00:00 25 15 Oeste 31 Oeste 0 -- -- 23
2020-06-13 18:00:00 25.6 14 Noroeste 36 Sudoeste 0 -- -- 22
2020-06-13 17:00:00 24.7 9 Oeste 33 Oeste 0 -- -- 25
2020-06-13 16:00:00 24.1 7 Oeste 27 Sudoeste 0 -- -- 28
2020-06-13 15:00:00 24 13 Oeste 28 Oeste 0 -- -- 29
2020-06-13 14:00:00 21.8 13 Oeste 27 Sudoeste 0 -- -- 35
2020-06-13 13:00:00 20.8 12 Oeste 28 Oeste 0 -- -- 37
2020-06-13 12:00:00 19.2 15 Oeste 28 Oeste 0 -- -- 41
2020-06-13 11:00:00 17.6 15 Oeste 35 Oeste 0 -- -- 46
2020-06-13 10:00:00 16.1 19 Oeste 31 Sudoeste 0 -- -- 53
2020-06-13 09:00:00 13.9 17 Oeste 28 Oeste 0 -- -- 65
2020-06-13 08:00:00 12.1 13 Oeste 21 Oeste 0 -- -- 71
2020-06-13 07:00:00 10.5 13 Oeste 23 Oeste 0 -- -- 77
2020-06-13 06:00:00 10.9 14 Oeste 23 Sudoeste 0 -- -- 73
2020-06-13 05:00:00 11.4 13 Oeste 24 Oeste 0 -- -- 69
2020-06-13 04:00:00 12.2 11 Oeste 21 Sudoeste 0 -- -- 65
2020-06-13 03:00:00 12.7 10 Oeste 21 Oeste 0 -- -- 60
2020-06-13 02:00:00 13.2 8 Oeste 28 Oeste 0 -- -- 60
2020-06-13 01:00:00 14.9 16 Oeste 37 Oeste 0 -- -- 48
2020-06-13 00:00:00 16.3 15 Oeste 26 Oeste 0 -- -- 41
2020-06-12 23:00:00 15.6 10 Sudoeste 26 Oeste 0 -- -- 43
2020-06-12 22:00:00 16.8 13 Oeste 32 Oeste 0 -- -- 40
2020-06-12 21:00:00 18 21 Oeste 37 Sudoeste 0 -- -- 36
2020-06-12 20:00:00 18.7 20 Oeste 43 Oeste 0 -- -- 34
2020-06-12 19:00:00 19.4 25 Oeste 48 Oeste 0 -- -- 33
2020-06-12 18:00:00 20.8 27 Oeste 50 Oeste 0 -- -- 31
2020-06-12 17:00:00 20.7 31 Oeste 52 Oeste 0 -- -- 33
2020-06-12 16:00:00 20.9 29 Oeste 50 Oeste 0 -- -- 32
2020-06-12 15:00:00 20.4 30 Oeste 46 Oeste 0 -- -- 32
2020-06-12 14:00:00 19.8 24 Sudoeste 44 Oeste 0 -- -- 34
2020-06-12 13:00:00 18.5 25 Sudoeste 45 Sudoeste 0 -- -- 37
2020-06-12 12:00:00 16.1 27 Oeste 42 Sudoeste 0 -- -- 43
2020-06-12 11:00:00 15.3 23 Oeste 42 Oeste 0 -- -- 46
2020-06-12 10:00:00 14.3 23 Oeste 43 Oeste 0 -- -- 48
2020-06-12 09:00:00 13.3 21 Oeste 45 Oeste 0 -- -- 55
2020-06-12 08:00:00 11.9 28 Oeste 45 Oeste 0 -- -- 60
2020-06-12 07:00:00 12 22 Oeste 40 Sudoeste 0 -- -- 62
2020-06-12 06:00:00 12.7 20 Oeste 38 Sudoeste 0 -- -- 64
2020-06-12 05:00:00 13.8 23 Oeste 41 Oeste 0 -- -- 59
2020-06-12 04:00:00 14.6 23 Oeste 44 Sudoeste 0 -- -- 61
2020-06-12 03:00:00 15 27 Oeste 49 Sudoeste 0 -- -- 63
2020-06-12 02:00:00 16.1 33 Oeste 58 Sudoeste 0 -- -- 58
2020-06-12 01:00:00 17 26 Oeste 41 Oeste 0 -- -- 57
2020-06-12 00:00:00 17.9 23 Oeste 46 Sudoeste 0 -- -- 49
2020-06-11 23:00:00 18.8 23 Sudoeste 47 Oeste 0 -- -- 44
2020-06-11 22:00:00 19.7 28 Sudoeste 60 Oeste 0 -- -- 40
2020-06-11 21:00:00 21.1 35 Oeste 59 Oeste 0 -- -- 39
2020-06-11 20:00:00 23 36 Oeste 58 Sudoeste 0 -- -- 36
2020-06-11 19:00:00 25.5 36 Oeste 57 Oeste 0 -- -- 28
2020-06-11 18:00:00 25.5 36 Oeste 60 Oeste 0 -- -- 27
2020-06-11 17:00:00 26 35 Oeste 55 Sudoeste 0 -- -- 26
2020-06-11 16:00:00 26.1 32 Sudoeste 57 Oeste 0 -- -- 28
2020-06-11 15:00:00 25.2 35 Sudoeste 53 Sudoeste 0 -- -- 28
2020-06-11 14:00:00 25.3 32 Sudoeste 55 Oeste 0 -- -- 24
2020-06-11 13:00:00 23.8 31 Sudoeste 51 Oeste 0 -- -- 28
2020-06-11 12:00:00 22.9 28 Sudoeste 53 Oeste 0 -- -- 30
2020-06-11 11:00:00 21.5 31 Sudoeste 52 Sudoeste 0 -- -- 33
2020-06-11 10:00:00 19.8 25 Sudoeste 39 Sudoeste 0 -- -- 43
2020-06-11 09:00:00 17.8 23 Sudoeste 38 Sudoeste 0 -- -- 52
2020-06-11 08:00:00 15.6 14 Sudoeste 22 Sudoeste 0 -- -- 54
2020-06-11 07:00:00 13.8 12 Sudoeste 22 Sudoeste 0 -- -- 50
2020-06-11 06:00:00 13.9 12 Sudoeste 18 Sudoeste 0 -- -- 48
2020-06-11 05:00:00 14.9 7 Sudoeste 18 Sudoeste 0 -- -- 44
2020-06-11 04:00:00 15.9 12 Sudoeste 19 Sudoeste 0 -- -- 41
2020-06-11 03:00:00 15.2 5 Sudoeste 13 Sudoeste 0 -- -- 44
2020-06-11 02:00:00 16.3 4 Oeste 9 Oeste 0 -- -- 43
2020-06-11 01:00:00 17.1 3 Oeste 10 Sur 0 -- -- 45
2020-06-11 00:00:00 17.4 4 Sudoeste 9 Sudeste 0 -- -- 42
2020-06-10 23:00:00 19.7 0 Calma 5 Sur 0 -- -- 38
2020-06-10 22:00:00 21.9 3 Norte 8 Norte 0 -- -- 31
2020-06-10 21:00:00 23.6 6 Norte 17 Norte 0 -- -- 28
2020-06-10 20:00:00 25.4 8 Norte 25 Oeste 0 -- -- 24
2020-06-10 19:00:00 26.1 13 Sudoeste 24 Oeste 0 -- -- 22
2020-06-10 18:00:00 27.4 12 Oeste 29 Noroeste 0 -- -- 22
2020-06-10 17:00:00 27.9 13 Oeste 33 Oeste 0 -- -- 21
2020-06-10 16:00:00 26 16 Oeste 33 Sudoeste 0 -- -- 24
2020-06-10 15:00:00 25.2 18 Oeste 32 Oeste 0 -- -- 26
2020-06-10 14:00:00 23.9 14 Oeste 26 Oeste 0 -- -- 27
2020-06-10 13:00:00 27 12 Noroeste 24 Noroeste 0 -- -- 24
2020-06-10 12:00:00 24.4 8 Noroeste 18 Noroeste 0 -- -- 30
2020-06-10 11:00:00 22.7 2 Norte 12 Nordeste 0 -- -- 37
2020-06-10 10:00:00 18.7 7 Nordeste 13 Nordeste 0 -- -- 46
2020-06-10 09:00:00 13.7 6 Nordeste 11 Nordeste 0 -- -- 62
2020-06-10 08:00:00 10.8 5 Nordeste 9 Nordeste 0 -- -- 77
2020-06-10 07:00:00 9.2 4 Nordeste 9 Este 0 -- -- 81
2020-06-10 06:00:00 9.4 4 Este 8 Sudeste 0 -- -- 77
2020-06-10 05:00:00 10.6 5 Nordeste 10 Nordeste 0 -- -- 75
2020-06-10 04:00:00 11.2 6 Nordeste 11 Nordeste 0 -- -- 71
2020-06-10 03:00:00 11.1 4 Nordeste 7 Nordeste 0 -- -- 59
2020-06-10 02:00:00 12.2 2 Sudeste 6 Sudeste 0 -- -- 52
2020-06-10 01:00:00 14.2 0 Calma 7 Este 0 -- -- 47
2020-06-10 00:00:00 15.9 3 Este 12 Nordeste 0 -- -- 44